createdAt,value
2019-01-29T00:01:28.760Z,5.65
2019-01-29T00:03:58.565Z,4.92
2019-01-29T00:06:28.300Z,5.28
2019-01-29T00:08:57.963Z,5.13
2019-01-29T00:11:27.899Z,5.08
2019-01-29T00:13:57.703Z,5.22
2019-01-29T00:16:27.350Z,5.17
2019-01-29T00:18:56.948Z,5.50
2019-01-29T00:21:26.492Z,5.28
2019-01-29T00:23:56.172Z,5.20
2019-01-29T00:26:26.171Z,5.10
2019-01-29T00:28:55.771Z,5.00
2019-01-29T00:31:25.467Z,4.72
2019-01-29T00:33:55.222Z,5.00
2019-01-29T00:36:24.814Z,5.22
2019-01-29T00:38:54.529Z,5.20
2019-01-29T00:41:24.205Z,5.25
2019-01-29T00:43:53.857Z,5.28
2019-01-29T00:46:23.450Z,5.40
2019-01-29T00:48:53.120Z,5.47
2019-01-29T00:51:22.773Z,5.37
2019-01-29T00:53:52.325Z,5.33
2019-01-29T00:56:22.032Z,5.15
2019-01-29T00:58:51.708Z,4.92
2019-01-29T01:01:21.373Z,5.75
2019-01-29T01:03:51.272Z,5.35
2019-01-29T01:06:21.014Z,5.60
2019-01-29T01:08:50.757Z,5.17
2019-01-29T01:11:20.757Z,5.17
2019-01-29T01:13:50.473Z,5.35
2019-01-29T01:16:20.110Z,5.00
2019-01-29T01:18:49.825Z,4.97
2019-01-29T01:21:19.448Z,5.47
2019-01-29T01:23:49.114Z,5.10
2019-01-29T01:26:18.697Z,5.25
2019-01-29T01:28:48.907Z,5.25
2019-01-29T01:31:18.496Z,4.83
2019-01-29T01:33:48.135Z,5.17
2019-01-29T01:36:17.727Z,5.25
2019-01-29T01:38:47.359Z,5.35
2019-01-29T01:41:16.948Z,5.15
2019-01-29T01:43:46.694Z,5.12
2019-01-29T01:46:16.294Z,5.33
2019-01-29T01:48:46.091Z,5.17
2019-01-29T01:51:15.755Z,5.10
2019-01-29T01:53:45.369Z,4.92
2019-01-29T01:56:15.104Z,5.20
2019-01-29T01:58:44.710Z,4.60
2019-01-29T02:01:14.366Z,5.10
2019-01-29T02:03:43.994Z,5.25
2019-01-29T02:06:13.760Z,4.62
2019-01-29T02:08:44.396Z,5.00
2019-01-29T02:11:14.026Z,4.85
2019-01-29T02:13:43.829Z,4.85
2019-01-29T02:16:13.512Z,5.08
2019-01-29T02:18:43.244Z,4.47
2019-01-29T02:21:12.794Z,4.50
2019-01-29T02:23:42.513Z,4.47
2019-01-29T02:26:12.067Z,4.40
2019-01-29T02:28:41.716Z,4.12
2019-01-29T02:31:11.485Z,5.08
2019-01-29T02:33:41.069Z,4.25
2019-01-29T02:36:10.713Z,4.35
2019-01-29T02:38:40.366Z,4.22
2019-01-29T02:41:10.020Z,4.25
2019-01-29T02:43:39.528Z,4.10
2019-01-29T02:46:09.607Z,4.45
2019-01-29T02:48:39.328Z,3.72
2019-01-29T02:51:09.057Z,4.30
2019-01-29T02:53:38.807Z,4.53
2019-01-29T02:56:08.443Z,4.20
2019-01-29T02:58:38.223Z,4.05
2019-01-29T03:01:08.353Z,4.20
2019-01-29T03:03:38.175Z,4.20
2019-01-29T03:06:07.990Z,4.15
2019-01-29T03:08:37.549Z,4.00
2019-01-29T03:11:07.447Z,4.58
2019-01-29T03:13:37.127Z,4.40
2019-01-29T03:16:06.871Z,4.60
2019-01-29T03:18:36.874Z,4.30
2019-01-29T03:21:06.434Z,3.70
2019-01-29T03:23:36.021Z,4.28
2019-01-29T03:26:05.878Z,4.17
2019-01-29T03:28:35.608Z,4.62
2019-01-29T03:31:05.399Z,4.40
2019-01-29T03:33:35.163Z,4.33
2019-01-29T03:36:04.934Z,4.85
2019-01-29T03:38:34.553Z,4.53
2019-01-29T03:41:04.284Z,4.35
2019-01-29T03:43:34.161Z,4.35
2019-01-29T03:46:04.064Z,4.40
2019-01-29T03:48:33.810Z,3.70
2019-01-29T03:51:03.690Z,4.45
2019-01-29T03:53:38.203Z,4.12
2019-01-29T03:56:04.916Z,4.60
2019-01-29T03:58:34.617Z,4.37
2019-01-29T04:01:04.569Z,3.80
2019-01-29T04:03:34.267Z,4.25
2019-01-29T04:06:04.126Z,3.98
2019-01-29T04:08:33.759Z,3.90
2019-01-29T04:11:03.556Z,3.95
2019-01-29T04:13:33.366Z,4.20
2019-01-29T04:16:03.168Z,4.15
2019-01-29T04:18:32.868Z,4.72
2019-01-29T04:21:02.791Z,3.70
2019-01-29T04:23:32.566Z,4.22
2019-01-29T04:26:02.183Z,4.10
2019-01-29T04:28:32.082Z,3.98
2019-01-29T04:31:01.653Z,4.05
2019-01-29T04:33:31.325Z,3.83
2019-01-29T04:36:00.995Z,4.03
2019-01-29T04:38:30.974Z,4.22
2019-01-29T04:41:00.561Z,3.80
2019-01-29T04:43:30.441Z,3.67
2019-01-29T04:46:00.231Z,4.10
2019-01-29T04:48:29.901Z,4.15
2019-01-29T04:50:59.726Z,4.37
2019-01-29T04:53:29.673Z,4.17
2019-01-29T04:55:59.255Z,4.40
2019-01-29T04:58:28.812Z,4.50
2019-01-29T05:00:58.428Z,3.80
2019-01-29T05:03:28.137Z,3.92
2019-01-29T05:05:57.874Z,4.08
2019-01-29T05:08:27.611Z,3.37
2019-01-29T05:10:57.420Z,3.95
2019-01-29T05:13:27.149Z,4.08
2019-01-29T05:15:56.708Z,3.62
2019-01-29T05:18:26.409Z,3.90
2019-01-29T05:20:56.100Z,3.98
2019-01-29T05:23:26.192Z,3.72
2019-01-29T05:25:56.095Z,4.33
2019-01-29T05:28:25.729Z,4.22
2019-01-29T05:30:55.283Z,3.70
2019-01-29T05:33:25.049Z,3.80
2019-01-29T05:35:54.674Z,3.72
2019-01-29T05:38:24.311Z,3.90
2019-01-29T05:40:54.029Z,3.98
2019-01-29T05:43:23.869Z,4.03
2019-01-29T05:45:53.484Z,3.75
2019-01-29T05:48:23.049Z,3.70
2019-01-29T05:50:52.664Z,4.08
2019-01-29T05:53:22.175Z,4.20
2019-01-29T05:55:51.767Z,4.05
2019-01-29T05:58:21.353Z,4.35
2019-01-29T06:00:51.034Z,4.50
2019-01-29T06:03:20.646Z,4.45
2019-01-29T06:05:50.651Z,4.90
2019-01-29T06:08:20.372Z,4.30
2019-01-29T06:10:50.356Z,4.25
2019-01-29T06:13:20.241Z,4.35
2019-01-29T06:15:53.961Z,4.17
2019-01-29T06:18:23.689Z,3.85
2019-01-29T06:20:53.541Z,3.37
2019-01-29T06:23:23.452Z,3.83
2019-01-29T06:25:53.329Z,3.40
2019-01-29T06:28:23.231Z,4.10
2019-01-29T06:30:53.388Z,3.87
2019-01-29T06:33:23.188Z,4.20
2019-01-29T06:35:53.190Z,4.03
2019-01-29T06:38:22.784Z,3.85
2019-01-29T06:40:52.732Z,4.00
2019-01-29T06:43:22.412Z,4.12
2019-01-29T06:45:52.298Z,3.98
2019-01-29T06:48:21.954Z,3.92
2019-01-29T06:50:51.506Z,3.83
2019-01-29T06:53:21.065Z,3.85
2019-01-29T06:55:50.721Z,4.00
2019-01-29T06:58:20.297Z,3.77
2019-01-29T07:00:49.877Z,4.40
2019-01-29T07:03:19.729Z,4.47
2019-01-29T07:05:49.381Z,4.42
2019-01-29T07:08:19.019Z,3.87
2019-01-29T07:10:49.800Z,3.55
2019-01-29T07:13:19.488Z,4.10
2019-01-29T07:16:07.970Z,3.90
2019-01-29T07:18:47.300Z,3.75
2019-01-29T07:21:16.951Z,4.30
2019-01-29T07:23:46.649Z,3.87
2019-01-29T07:26:16.307Z,3.80
2019-01-29T07:28:46.174Z,3.83
2019-01-29T07:31:15.861Z,4.58
2019-01-29T07:33:45.553Z,3.27
2019-01-29T07:36:15.339Z,4.10
2019-01-29T07:38:45.020Z,4.45
2019-01-29T07:41:14.713Z,3.22
2019-01-29T07:43:44.671Z,4.40
2019-01-29T07:46:14.512Z,4.00
2019-01-29T07:48:44.378Z,4.40
2019-01-29T07:51:14.306Z,4.30
2019-01-29T07:53:44.099Z,4.17
2019-01-29T07:56:13.720Z,4.75
2019-01-29T07:58:43.355Z,4.10
2019-01-29T08:01:12.961Z,4.17
2019-01-29T08:03:42.523Z,4.35
2019-01-29T08:06:12.143Z,4.30
2019-01-29T08:08:41.690Z,3.42
2019-01-29T08:11:12.434Z,4.00
2019-01-29T08:13:42.267Z,4.35
2019-01-29T08:16:11.894Z,4.12
2019-01-29T08:18:41.546Z,4.90
2019-01-29T08:21:11.234Z,4.45
2019-01-29T08:23:41.032Z,4.60
2019-01-29T08:26:10.803Z,5.28
2019-01-29T08:28:40.400Z,5.05
2019-01-29T08:31:10.527Z,6.05
2019-01-29T08:33:40.432Z,6.78
2019-01-29T08:36:10.706Z,6.55
2019-01-29T08:38:40.421Z,6.50
2019-01-29T08:41:10.011Z,5.75
2019-01-29T08:43:40.032Z,6.42
2019-01-29T08:46:10.128Z,5.62
2019-01-29T08:48:40.091Z,5.17
2019-01-29T08:51:09.616Z,5.70
2019-01-29T08:53:39.479Z,5.25
2019-01-29T08:56:09.291Z,5.50
2019-01-29T08:58:39.066Z,4.60
2019-01-29T09:01:09.074Z,4.78
2019-01-29T09:03:38.879Z,5.58
2019-01-29T09:06:08.517Z,5.45
2019-01-29T09:08:38.346Z,5.47
2019-01-29T09:11:08.446Z,5.35
2019-01-29T09:13:38.234Z,5.92
2019-01-29T09:16:08.043Z,5.10
2019-01-29T09:18:37.987Z,5.25
2019-01-29T09:21:07.608Z,5.47
2019-01-29T09:23:38.953Z,6.10
2019-01-29T09:26:08.681Z,5.40
2019-01-29T09:28:38.519Z,5.05
2019-01-29T09:31:08.328Z,5.47
2019-01-29T09:33:38.177Z,5.37
2019-01-29T09:36:07.914Z,5.45
2019-01-29T09:38:37.894Z,5.90
2019-01-29T09:41:07.980Z,6.20
2019-01-29T09:43:37.913Z,6.10
2019-01-29T09:46:07.549Z,5.67
2019-01-29T09:48:37.461Z,5.50
2019-01-29T09:51:07.464Z,6.03
2019-01-29T09:53:37.386Z,5.90
2019-01-29T09:56:08.240Z,6.22
2019-01-29T09:58:38.190Z,5.72
2019-01-29T10:01:08.068Z,6.50
2019-01-29T10:03:38.029Z,6.15
2019-01-29T10:06:07.983Z,5.85
2019-01-29T10:08:37.502Z,8.78
2019-01-29T10:11:07.436Z,6.30
2019-01-29T10:13:38.038Z,5.80
2019-01-29T10:16:07.783Z,5.95
2019-01-29T10:18:37.502Z,5.90
2019-01-29T10:21:07.086Z,6.10
2019-01-29T10:23:36.877Z,6.53
2019-01-29T10:26:06.692Z,6.33
2019-01-29T10:28:36.429Z,6.12
2019-01-29T10:31:05.971Z,5.90
2019-01-29T10:33:35.751Z,8.18
2019-01-29T10:36:05.569Z,7.55
2019-01-29T10:38:35.324Z,6.35
2019-01-29T10:41:04.921Z,7.33
2019-01-29T10:43:34.490Z,10.15
2019-01-29T10:46:04.238Z,6.95
2019-01-29T10:48:33.823Z,6.62
2019-01-29T10:51:03.732Z,6.85
2019-01-29T10:53:34.063Z,6.40
2019-01-29T10:56:03.611Z,6.72
2019-01-29T10:58:33.220Z,7.03
2019-01-29T11:01:03.162Z,9.75
2019-01-29T11:03:32.941Z,7.50
2019-01-29T11:06:02.914Z,7.72
2019-01-29T11:08:32.564Z,7.22
2019-01-29T11:11:02.352Z,7.65
2019-01-29T11:13:32.105Z,7.95
2019-01-29T11:16:01.995Z,8.35
2019-01-29T11:18:31.619Z,7.60
2019-01-29T11:21:01.327Z,8.18
2019-01-29T11:23:31.140Z,8.23
2019-01-29T11:26:00.764Z,9.08
2019-01-29T11:28:30.251Z,7.45
2019-01-29T11:31:00.074Z,7.83
2019-01-29T11:33:29.732Z,8.15
2019-01-29T11:35:59.531Z,8.03
2019-01-29T11:38:29.010Z,7.70
2019-01-29T11:40:58.903Z,8.30
2019-01-29T11:43:28.508Z,6.80
2019-01-29T11:45:58.147Z,7.12
2019-01-29T11:48:27.916Z,7.12
2019-01-29T11:50:57.638Z,10.73
2019-01-29T11:53:27.318Z,6.62
2019-01-29T11:56:04.340Z,7.40
2019-01-29T11:58:28.355Z,7.75
2019-01-29T12:01:02.171Z,7.40
2019-01-29T12:03:31.937Z,8.03
2019-01-29T12:06:01.798Z,7.53
2019-01-29T12:08:31.548Z,7.30
2019-01-29T12:11:01.212Z,7.08
2019-01-29T12:13:30.728Z,6.87
2019-01-29T12:16:00.498Z,6.93
2019-01-29T12:18:30.030Z,7.23
2019-01-29T12:20:59.957Z,8.40
2019-01-29T12:23:29.715Z,8.03
2019-01-29T12:25:59.407Z,9.23
2019-01-29T12:28:29.086Z,8.03
2019-01-29T12:30:58.721Z,8.45
2019-01-29T12:33:28.278Z,7.30
2019-01-29T12:35:57.882Z,8.18
2019-01-29T12:38:27.463Z,8.08
2019-01-29T12:40:57.102Z,6.65
2019-01-29T12:43:26.872Z,6.93
2019-01-29T12:45:56.670Z,7.10
2019-01-29T12:48:26.232Z,7.47
2019-01-29T12:50:58.202Z,6.97
2019-01-29T12:53:34.873Z,7.60
2019-01-29T12:56:05.375Z,7.33
2019-01-29T12:58:38.194Z,7.28
2019-01-29T13:01:08.207Z,6.67
2019-01-29T13:03:38.069Z,7.50
2019-01-29T13:06:07.995Z,7.50
2019-01-29T13:08:37.899Z,7.20
2019-01-29T13:11:07.678Z,7.72
2019-01-29T13:13:37.611Z,7.15
2019-01-29T13:16:07.582Z,7.85
2019-01-29T13:18:37.420Z,7.20
2019-01-29T13:21:07.291Z,7.37
2019-01-29T13:23:37.402Z,7.28
2019-01-29T13:26:07.054Z,6.45
2019-01-29T13:28:36.840Z,7.60
2019-01-29T13:31:06.735Z,6.90
2019-01-29T13:33:36.660Z,7.63
2019-01-29T13:36:08.175Z,7.17
2019-01-29T13:38:38.167Z,7.00
2019-01-29T13:41:08.211Z,6.95
2019-01-29T13:43:38.205Z,7.05
2019-01-29T13:46:07.997Z,6.37
2019-01-29T13:48:37.648Z,6.93
2019-01-29T13:51:07.497Z,7.03
2019-01-29T13:53:37.473Z,7.65
2019-01-29T13:56:07.052Z,7.70
2019-01-29T13:58:37.025Z,7.77
2019-01-29T14:01:07.159Z,6.62
2019-01-29T14:03:37.026Z,6.70
2019-01-29T14:06:06.683Z,7.15
2019-01-29T14:08:36.282Z,6.83
2019-01-29T14:11:06.303Z,6.83
2019-01-29T14:13:36.309Z,12.28
2019-01-29T14:16:09.959Z,6.95
2019-01-29T14:18:39.516Z,7.10
2019-01-29T14:21:09.239Z,7.20
2019-01-29T14:23:39.118Z,7.17
2019-01-29T14:26:08.959Z,7.53
2019-01-29T14:28:38.837Z,7.10
2019-01-29T14:31:08.755Z,7.60
2019-01-29T14:33:38.776Z,6.87
2019-01-29T14:36:16.526Z,7.10
2019-01-29T14:39:21.006Z,6.87
2019-01-29T14:41:50.753Z,7.40
2019-01-29T14:44:26.382Z,26.05
2019-01-29T14:46:56.128Z,6.90
2019-01-29T14:49:25.882Z,6.42
2019-01-29T14:51:55.593Z,7.12
2019-01-29T14:54:25.666Z,6.80
2019-01-29T14:56:56.939Z,7.15
2019-01-29T14:59:26.792Z,7.08
2019-01-29T15:01:56.410Z,7.08
2019-01-29T15:04:26.020Z,6.72
2019-01-29T15:06:55.792Z,7.40
2019-01-29T15:09:25.833Z,7.37
2019-01-29T15:11:55.554Z,7.03
2019-01-29T15:14:25.367Z,7.28
2019-01-29T15:17:16.983Z,6.72
2019-01-29T15:19:46.709Z,7.05
2019-01-29T15:22:16.748Z,6.90
2019-01-29T15:24:46.585Z,7.05
2019-01-29T15:27:16.310Z,6.45
2019-01-29T15:29:46.087Z,7.20
2019-01-29T15:32:15.822Z,8.45
2019-01-29T15:34:45.511Z,7.15
2019-01-29T15:37:15.206Z,8.60
2019-01-29T15:39:44.820Z,6.10
2019-01-29T15:42:14.658Z,6.62
2019-01-29T15:44:44.501Z,6.05
2019-01-29T15:47:14.272Z,6.40
2019-01-29T15:49:43.905Z,6.22
2019-01-29T15:52:13.647Z,6.20
2019-01-29T15:54:43.530Z,6.37
2019-01-29T15:57:14.352Z,6.78
2019-01-29T15:59:44.185Z,7.08
2019-01-29T16:02:13.795Z,7.17
2019-01-29T16:04:43.555Z,6.25
2019-01-29T16:07:13.113Z,6.65
2019-01-29T16:09:42.793Z,6.03
2019-01-29T16:12:12.416Z,5.83
2019-01-29T16:14:42.096Z,6.10
2019-01-29T16:17:12.003Z,6.50
2019-01-29T16:19:41.880Z,6.92
2019-01-29T16:22:11.726Z,7.45
2019-01-29T16:24:41.526Z,6.30
2019-01-29T16:27:11.357Z,6.37
2019-01-29T16:29:41.047Z,5.92
2019-01-29T16:32:10.724Z,6.87
2019-01-29T16:34:40.651Z,6.10
2019-01-29T16:37:10.556Z,5.90
2019-01-29T16:39:40.500Z,6.75
2019-01-29T16:42:10.384Z,6.50
2019-01-29T16:44:40.407Z,5.85
2019-01-29T16:47:10.264Z,6.15
2019-01-29T16:49:40.230Z,6.58
2019-01-29T16:52:10.242Z,6.37
2019-01-29T16:54:40.051Z,6.03
2019-01-29T16:57:10.113Z,6.60
2019-01-29T16:59:40.111Z,6.40
2019-01-29T17:02:10.165Z,6.17
2019-01-29T17:04:40.064Z,7.95
2019-01-29T17:07:09.883Z,7.47
2019-01-29T17:09:39.605Z,6.80
2019-01-29T17:12:09.676Z,6.42
2019-01-29T17:14:39.461Z,5.70
2019-01-29T17:17:09.373Z,6.37
2019-01-29T17:19:39.355Z,6.20
2019-01-29T17:22:09.538Z,6.67
2019-01-29T17:24:39.943Z,6.60
2019-01-29T17:27:09.647Z,6.50
2019-01-29T17:29:42.012Z,7.37
2019-01-29T17:32:11.795Z,7.25
2019-01-29T17:34:41.387Z,6.95
2019-01-29T17:37:11.081Z,9.63
2019-01-29T17:39:40.808Z,9.73
2019-01-29T17:42:10.750Z,8.80
2019-01-29T17:44:40.482Z,7.85
2019-01-29T17:47:13.530Z,7.55
2019-01-29T17:49:43.228Z,7.17
2019-01-29T17:52:12.853Z,7.58
2019-01-29T17:54:42.493Z,8.10
2019-01-29T17:57:12.739Z,7.65
2019-01-29T17:59:42.521Z,7.92
2019-01-29T18:02:12.115Z,6.30
2019-01-29T18:04:41.675Z,7.12
2019-01-29T18:07:11.276Z,6.47
2019-01-29T18:09:41.068Z,6.72
2019-01-29T18:12:10.928Z,6.75
2019-01-29T18:14:40.635Z,6.25
2019-01-29T18:17:10.453Z,6.60
2019-01-29T18:19:40.540Z,6.80
2019-01-29T18:22:11.179Z,6.30
2019-01-29T18:24:40.789Z,7.03
2019-01-29T18:27:10.485Z,7.58
2019-01-29T18:29:40.239Z,8.10
2019-01-29T18:32:10.187Z,7.85
2019-01-29T18:34:40.275Z,6.87
2019-01-29T18:37:10.069Z,8.03
2019-01-29T18:39:39.951Z,7.50
2019-01-29T18:42:09.614Z,6.40
2019-01-29T18:44:39.339Z,7.20
2019-01-29T18:47:09.002Z,8.15
2019-01-29T18:49:39.096Z,7.10
2019-01-29T18:52:09.420Z,6.95
2019-01-29T18:54:39.229Z,7.33
2019-01-29T18:57:09.283Z,7.35
2019-01-29T18:59:39.247Z,7.58
2019-01-29T19:02:09.290Z,7.83
2019-01-29T19:04:39.245Z,8.65
2019-01-29T19:07:09.010Z,7.20
2019-01-29T19:09:38.849Z,9.75
2019-01-29T19:12:08.920Z,9.18
2019-01-29T19:14:41.698Z,8.73
2019-01-29T19:17:11.457Z,8.75
2019-01-29T19:19:41.014Z,9.23
2019-01-29T19:22:10.688Z,9.63
2019-01-29T19:24:40.440Z,8.80
2019-01-29T19:27:10.142Z,10.38
2019-01-29T19:29:40.009Z,9.55
2019-01-29T19:32:09.734Z,9.48
2019-01-29T19:34:39.437Z,9.55
2019-01-29T19:37:09.266Z,9.58
2019-01-29T19:39:39.253Z,9.53
2019-01-29T19:42:09.190Z,8.83
2019-01-29T19:44:39.072Z,9.00
2019-01-29T19:47:08.712Z,8.83
2019-01-29T19:49:38.588Z,9.33
2019-01-29T19:52:08.409Z,9.48
2019-01-29T19:54:38.245Z,9.05
2019-01-29T19:57:08.023Z,9.53
2019-01-29T19:59:37.759Z,9.00
2019-01-29T20:02:07.752Z,8.93
2019-01-29T20:04:37.423Z,9.95
2019-01-29T20:07:07.660Z,10.32
2019-01-29T20:09:37.333Z,9.18
2019-01-29T20:12:09.670Z,9.53
2019-01-29T20:14:38.588Z,10.23
2019-01-29T20:17:08.790Z,9.30
2019-01-29T20:19:38.947Z,9.28
2019-01-29T20:22:08.778Z,10.20
2019-01-29T20:24:38.494Z,10.03
2019-01-29T20:27:08.265Z,9.28
2019-01-29T20:29:38.267Z,9.08
2019-01-29T20:32:08.010Z,9.50
2019-01-29T20:34:38.065Z,8.30
2019-01-29T20:37:07.985Z,8.70
2019-01-29T20:39:38.281Z,10.10
2019-01-29T20:42:08.634Z,9.38
2019-01-29T20:44:38.351Z,8.23
2019-01-29T20:47:08.116Z,8.20
2019-01-29T20:49:38.199Z,8.30
2019-01-29T20:52:08.210Z,8.45
2019-01-29T20:54:38.282Z,8.43
2019-01-29T20:57:08.279Z,8.05
2019-01-29T20:59:38.649Z,8.65
2019-01-29T21:02:08.591Z,8.40
2019-01-29T21:04:38.379Z,8.70
2019-01-29T21:07:08.238Z,7.95
2019-01-29T21:09:38.359Z,8.35
2019-01-29T21:12:08.183Z,8.58
2019-01-29T21:14:38.222Z,8.60
2019-01-29T21:17:07.999Z,7.80
2019-01-29T21:19:38.058Z,8.55
2019-01-29T21:22:08.314Z,8.65
2019-01-29T21:24:39.148Z,8.08
2019-01-29T21:27:08.818Z,7.40
2019-01-29T21:29:39.015Z,8.55
2019-01-29T21:32:08.716Z,7.90
2019-01-29T21:34:38.717Z,8.13
2019-01-29T21:37:08.527Z,7.87
2019-01-29T21:39:39.494Z,7.53
2019-01-29T21:42:09.227Z,7.87
2019-01-29T21:44:39.452Z,8.00
2019-01-29T21:47:09.199Z,7.35
2019-01-29T21:49:39.248Z,7.80
2019-01-29T21:52:08.985Z,8.03
2019-01-29T21:54:38.873Z,7.67
2019-01-29T21:57:08.656Z,7.47
2019-01-29T21:59:38.520Z,7.37
2019-01-29T22:02:08.286Z,7.67
2019-01-29T22:04:38.351Z,7.55
2019-01-29T22:07:07.977Z,7.15
2019-01-29T22:09:39.448Z,7.50
2019-01-29T22:12:09.587Z,8.53
2019-01-29T22:14:39.631Z,9.25
2019-01-29T22:17:09.371Z,8.88
2019-01-29T22:19:39.066Z,8.73
2019-01-29T22:22:08.947Z,7.20
2019-01-29T22:24:38.762Z,7.65
2019-01-29T22:27:10.366Z,7.40
2019-01-29T22:29:40.481Z,7.97
2019-01-29T22:32:10.355Z,7.62
2019-01-29T22:34:40.032Z,7.70
2019-01-29T22:37:09.868Z,6.78
2019-01-29T22:39:39.733Z,7.60
2019-01-29T22:42:09.828Z,7.08
2019-01-29T22:44:39.696Z,7.40
2019-01-29T22:47:09.478Z,7.70
2019-01-29T22:49:39.530Z,7.22
2019-01-29T22:52:09.140Z,7.25
2019-01-29T22:54:38.821Z,7.15
2019-01-29T22:57:08.355Z,7.05
2019-01-29T22:59:37.893Z,7.28
2019-01-29T23:02:07.705Z,6.87
2019-01-29T23:04:45.158Z,6.87
2019-01-29T23:07:26.876Z,7.60
2019-01-29T23:09:56.484Z,7.08
2019-01-29T23:12:26.139Z,7.30
2019-01-29T23:14:55.894Z,7.70
2019-01-29T23:17:25.809Z,7.20
2019-01-29T23:19:55.661Z,7.10
2019-01-29T23:22:25.227Z,7.37
2019-01-29T23:24:55.110Z,7.00
2019-01-29T23:27:24.854Z,6.87
2019-01-29T23:29:54.639Z,6.87
2019-01-29T23:32:24.472Z,6.62
2019-01-29T23:34:54.177Z,7.33
2019-01-29T23:37:23.753Z,6.55
2019-01-29T23:39:53.384Z,6.70
2019-01-29T23:42:23.047Z,6.20
2019-01-29T23:44:52.750Z,5.95
2019-01-29T23:47:22.395Z,6.17
2019-01-29T23:49:52.327Z,6.50
2019-01-29T23:52:22.345Z,5.80
2019-01-29T23:54:51.976Z,5.83
2019-01-29T23:57:21.770Z,5.50
2019-01-29T23:59:53.682Z,5.67
